Benson, Minnesota
Current Conditions -  °F | °C
As of 6:33 AM on Friday 28 Nov 2014 (Local Time) from KBBB Reporting Station
Clear Clear  
Wind Chill: -5°   Ceiling: Unl
Heat Index:   Visibility: 10mi
Dew Point:   Wind: 9mph
Humidity: 79%   Direction: 130°SE
Pressure: 29.95"   Gusts: NA
Location:  45.31°N, 95.6°W
Report Text: KBBB 281233Z AUTO 13008KT 10SM CLR M13/M16 A2995 RMK AO2
Loading
Personal Weather Stations






























Interactive Weather Map New forecast layout! Learn more

10-Day Weather Forecast

Advertisements
Track Severe Weather on mobile